Historyczne dane pomiarowe

Dodano dane terminowe – wersja testowa.

Dane z okresu 1951-2019

Wersja bazy: 1.34 [2019-03-16, lista zmian], aktualizacja planowana na 2019-04-15

Dane meteo z obszaru Polski uzyskane na podstawie danych udostępnionych przez Instytut Meteorologii i Gospodarki Wodnej – Państwowy Instytut Badawczy.

 

Wybierz Datę:    

       

TemperaturaWilgotnośćWiatrCiśnienieOpadyŚniegCzas trwania zjawisk
 Stacja t tx tn tng RH VA  wxwx mslp ppp RRR   cm mm wxwxwxwxwxwxwx
1987-08-14 14.1 20.6 9.8 8.0 86.5- 6.7 2.7---- 5.2------------
1987-08-13 13.9 19.8 6.4 6.1 80.8- 4.3 0.3---- 0.0------------
1987-08-12 13.6 19.0 6.5 5.1 78.0- 3.7 1.7---- 0.0------------
1987-08-11 13.4 17.5 9.5 7.4 76.0- 3.7 4.3---- 0.3------------
1987-08-10 14.5 18.9 10.8 9.6 87.3- 6.7 2.3---- 16.9------------
1987-08-09 16.4 24.3 7.9 7.3 76.5- 5.3 2.0---- 12.9------------
1987-08-08 15.0 21.3 7.9 6.3 68.3- 4.7 4.7---- 0.0------------
1987-08-07 11.0 18.0 5.4 2.3 83.3- 6.0 2.7---- 0.1------------
1987-08-06 12.4 15.2 7.4 6.1 73.5- 4.0 3.7---- 1.2------------
1987-08-05 12.4 17.6 6.6 4.7 78.3- 3.3 2.7---- 0.9------------
1987-08-04 15.3 18.7 11.5 11.0 76.0- 6.0 2.7---- 0.0------------
1987-08-03 14.4 20.5 8.5 7.4 77.0- 5.3 1.7---- 1.9------------
1987-08-02 14.3 18.7 10.7 10.0 77.8- 6.3 3.0---- 2.9------------
1987-08-01 15.1 20.3 12.4 11.6 90.0- 6.7 3.0---- 8.9------------
1987-07-31 16.1 21.7 13.3 12.9 82.5- 6.7 2.0---- 0.1------------
1987-07-30 18.1 25.4 9.8 7.9 70.8- 3.3 1.7---- 2.0------------
1987-07-29 14.7 19.4 9.7 9.0 75.3- 7.7 2.3---- 0.0------------
1987-07-28 13.1 15.6 11.6 11.4 83.0- 8.0 4.0---- 0.9------------
1987-07-27 12.2 17.0 7.7 6.8 74.0- 6.0 5.7---- 2.4------------
1987-07-26 13.7 16.5 11.0 10.8 81.5- 6.0 1.7---- 0.5------------
1987-07-25 17.1 22.2 13.9 12.9 84.5- 6.7 2.0---- 0.1------------
1987-07-24 19.5 24.0 14.1 13.3 84.0- 5.0 0.3---- 0.0------------
1987-07-23 19.8 26.4 12.3 11.8 83.8- 2.0 0.0---- 0.2------------
1987-07-22 18.5 24.1 12.4 12.1 79.8- 3.0 1.0---- 0.0------------
1987-07-21 16.8 22.3 11.6 11.2 90.0- 6.3 1.3---- 8.1------------
1987-07-20 18.4 23.5 15.1 14.9 85.0- 4.3 1.7---- 0.1------------
1987-07-19 18.1 21.9 15.9 15.4 86.3- 6.7 2.7---- 20.3------------
1987-07-18 20.4 25.1 15.1 14.3 76.5- 4.0 3.3---- 2.1------------
1987-07-17 23.7 29.9 17.9 16.6 71.3- 3.7 5.7---- 0.0------------
1987-07-16 20.9 27.8 12.5 12.0 77.3- 5.0 1.3---- 0.0------------
1987-07-15 18.1 24.3 8.1 7.5 71.5- 1.0 1.7---- 0.0------------
1987-07-14 15.7 21.6 8.1 7.1 74.8- 0.7 1.0---- 0.0------------
1987-07-13 17.0 20.0 11.4 10.6 74.0- 3.3 2.3---- 0.0------------
1987-07-12 20.4 27.2 15.8 13.2 73.3- 6.0 5.3---- 4.0------------
1987-07-11 16.8 23.6 8.3 7.3 74.8- 5.0 2.3---- 0.0------------
1987-07-10 14.5 18.4 8.9 7.9 73.8- 4.3 2.0---- 0.0------------
1987-07-09 16.2 21.6 14.4 13.9 90.3- 6.7 1.3---- 1.2------------
1987-07-08 20.4 25.5 15.4 13.5 78.8- 5.3 2.0---- 13.1------------
1987-07-07 19.6 26.9 10.3 9.2 63.3- 0.0 1.7---- 0.0------------
1987-07-06 17.8 23.6 8.9 8.8 69.3- 0.7 0.0---- 0.0------------
1987-07-05 16.1 20.1 10.8 9.6 75.8- 1.3 2.3---- 0.0------------
1987-07-04 17.3 21.4 11.7 11.1 83.5- 4.3 1.7---- 0.0------------
1987-07-03 18.4 24.0 12.2 11.7 78.3- 3.0 1.3---- 0.0------------
1987-07-02 18.0 20.8 14.9 14.5 84.0- 6.7 1.3---- 0.0------------
1987-07-01 23.4 30.4 19.6 17.8 80.5- 3.3 2.7---- 7.5------------
1987-06-30 23.2 29.5 17.9 15.5 79.5- 0.3 1.7---- 0.0------------
1987-06-29 21.6 26.9 16.8 16.4 79.3- 0.3 1.0---- 0.0------------
1987-06-28 19.4 23.9 13.4 11.8 77.3- 4.3 1.7---- 0.0------------
1987-06-27 16.5 19.6 13.8 13.5 89.8- 6.3 2.0---- 0.6------------
1987-06-26 16.1 23.2 9.5 8.5 81.0- 5.3 2.3---- 30.1------------
1987-06-25 13.6 16.8 11.3 11.0 87.0- 6.7 2.3---- 0.2------------
1987-06-24 14.9 19.9 12.2 10.8 78.0- 7.0 1.7---- 2.8------------
1987-06-23 14.6 19.4 10.3 10.2 80.5- 6.7 2.3---- 0.0------------
1987-06-22 13.2 14.9 11.3 11.0 90.5- 7.3 3.0---- 1.4------------
1987-06-21 15.3 21.6 9.9 8.5 83.0- 5.0 2.7---- 20.1------------
1987-06-20 15.7 20.5 9.0 7.3 80.5- 5.0 3.3---- 0.1------------
1987-06-19 12.0 17.5 7.5 7.1 78.3- 6.0 3.3---- 0.2------------
1987-06-18 10.9 15.0 7.0 5.5 82.0- 7.3 2.7---- 0.2------------
1987-06-17 12.4 16.6 7.3 5.8 68.3- 4.7 3.3---- 0.2------------
1987-06-16 12.4 23.3 9.0 9.0 79.3- 8.0 6.7---- 0.7------------
655.9 ms

 

Źródłem pochodzenia danych jest Instytut Meteorologii i Gospodarki Wodnej – Państwowy Instytut Badawczy. Dane Instytutu Meteorologii i Gospodarki Wodnej – Państwowego Instytutu Badawczego zostały przetworzone.

Dane źródłowe można odnaleźć na stronie https://dane.imgw.pl